createdAt,value
2018-07-09T00:00:42.843Z,51.65
2018-07-09T00:01:42.869Z,52.23
2018-07-09T00:02:42.858Z,51.65
2018-07-09T00:03:42.854Z,52.43
2018-07-09T00:04:42.869Z,52.04
2018-07-09T00:05:42.894Z,52.23
2018-07-09T00:06:42.982Z,51.95
2018-07-09T00:07:42.915Z,51.65
2018-07-09T00:08:42.943Z,51.95
2018-07-09T00:09:43.119Z,52.23
2018-07-09T00:10:42.953Z,52.33
2018-07-09T00:11:42.994Z,53.01
2018-07-09T00:12:42.980Z,53.20
2018-07-09T00:13:43.002Z,53.11
2018-07-09T00:14:43.013Z,53.88
2018-07-09T00:15:43.053Z,54.27
2018-07-09T00:16:43.032Z,54.65
2018-07-09T00:17:43.050Z,54.72
2018-07-09T00:18:43.132Z,54.62
2018-07-09T00:19:43.096Z,55.10
2018-07-09T00:20:43.106Z,55.10
2018-07-09T00:21:43.098Z,55.40
2018-07-09T00:22:43.152Z,54.82
2018-07-09T00:23:43.132Z,55.01
2018-07-09T00:24:43.406Z,54.91
2018-07-09T00:25:43.169Z,55.20
2018-07-09T00:26:43.249Z,55.40
2018-07-09T00:27:43.222Z,55.59
2018-07-09T00:28:43.262Z,55.98
2018-07-09T00:29:43.231Z,55.20
2018-07-09T00:30:43.243Z,56.07
2018-07-09T00:31:43.250Z,55.98
2018-07-09T00:32:43.273Z,56.16
2018-07-09T00:33:43.303Z,56.16
2018-07-09T00:34:43.429Z,56.16
2018-07-09T00:35:43.312Z,55.78
2018-07-09T00:36:43.342Z,55.98
2018-07-09T00:37:43.328Z,55.98
2018-07-09T00:38:43.355Z,55.98
2018-07-09T00:39:43.359Z,56.16
2018-07-09T00:40:43.415Z,55.98
2018-07-09T00:41:43.584Z,56.07
2018-07-09T00:42:43.404Z,56.07
2018-07-09T00:43:43.494Z,55.98
2018-07-09T00:44:43.435Z,56.16
2018-07-09T00:45:43.499Z,56.07
2018-07-09T00:46:43.467Z,56.46
2018-07-09T00:47:43.455Z,56.46
2018-07-09T00:48:43.480Z,56.46
2018-07-09T00:49:43.498Z,56.74
2018-07-09T00:50:43.546Z,56.65
2018-07-09T00:51:43.548Z,56.26
2018-07-09T00:52:43.550Z,56.84
2018-07-09T00:53:43.564Z,57.29
2018-07-09T00:54:43.601Z,57.39
2018-07-09T00:55:43.607Z,57.10
2018-07-09T00:56:43.638Z,57.20
2018-07-09T00:57:43.607Z,57.29
2018-07-09T00:58:43.674Z,57.29
2018-07-09T00:59:43.624Z,57.20
2018-07-09T01:00:43.640Z,57.01
2018-07-09T01:01:43.714Z,57.39
2018-07-09T01:02:43.687Z,57.49
2018-07-09T01:03:43.688Z,57.78
2018-07-09T01:04:43.696Z,57.68
2018-07-09T01:05:43.728Z,57.29
2018-07-09T01:06:43.752Z,58.36
2018-07-09T01:07:43.756Z,57.49
2018-07-09T01:08:43.751Z,58.45
2018-07-09T01:09:43.769Z,58.55
2018-07-09T01:10:43.834Z,59.23
2018-07-09T01:11:43.798Z,58.84
2018-07-09T01:12:43.825Z,59.03
2018-07-09T01:13:43.887Z,58.84
2018-07-09T01:14:43.836Z,59.32
2018-07-09T01:15:43.868Z,60.48
2018-07-09T01:16:43.851Z,60.00
2018-07-09T01:17:43.888Z,59.23
2018-07-09T01:18:43.931Z,59.23
2018-07-09T01:19:43.941Z,59.23
2018-07-09T01:20:43.962Z,59.23
2018-07-09T01:21:43.954Z,59.52
2018-07-09T01:22:43.970Z,59.32
2018-07-09T01:23:43.969Z,59.03
2018-07-09T01:24:44.017Z,59.23
2018-07-09T01:25:44.023Z,59.23
2018-07-09T01:26:44.000Z,59.23
2018-07-09T01:27:44.029Z,59.42
2018-07-09T01:28:44.027Z,59.32
2018-07-09T01:29:44.073Z,59.64
2018-07-09T01:30:44.052Z,60.10
2018-07-09T01:31:44.083Z,60.19
2018-07-09T01:32:44.462Z,60.13
2018-07-09T01:33:44.102Z,60.48
2018-07-09T01:34:44.200Z,59.90
2018-07-09T01:35:44.118Z,60.68
2018-07-09T01:36:44.132Z,60.58
2018-07-09T01:37:44.181Z,61.06
2018-07-09T01:38:44.181Z,60.58
2018-07-09T01:39:44.221Z,60.38
2018-07-09T01:40:44.247Z,60.96
2018-07-09T01:41:44.207Z,61.74
2018-07-09T01:42:44.242Z,61.74
2018-07-09T01:43:44.243Z,62.31
2018-07-09T01:44:44.247Z,62.22
2018-07-09T01:45:44.301Z,62.12
2018-07-09T01:46:44.265Z,62.22
2018-07-09T01:47:44.295Z,62.51
2018-07-09T01:48:44.314Z,62.51
2018-07-09T01:49:44.459Z,61.93
2018-07-09T01:50:44.372Z,62.31
2018-07-09T01:51:44.401Z,62.31
2018-07-09T01:52:44.391Z,62.12
2018-07-09T01:53:44.395Z,62.99
2018-07-09T01:54:44.423Z,62.99
2018-07-09T01:55:44.397Z,62.99
2018-07-09T01:56:44.410Z,62.99
2018-07-09T01:57:44.478Z,62.99
2018-07-09T01:58:44.445Z,63.28
2018-07-09T01:59:44.469Z,62.99
2018-07-09T02:00:44.463Z,62.89
2018-07-09T02:01:44.509Z,63.28
2018-07-09T02:02:44.488Z,63.47
2018-07-09T02:03:44.500Z,63.95
2018-07-09T02:04:44.524Z,63.34
2018-07-09T02:05:44.568Z,63.82
2018-07-09T02:06:44.547Z,64.05
2018-07-09T02:07:44.573Z,63.76
2018-07-09T02:08:44.593Z,63.47
2018-07-09T02:09:44.610Z,63.37
2018-07-09T02:10:44.704Z,64.50
2018-07-09T02:11:44.622Z,62.96
2018-07-09T02:12:44.629Z,63.82
2018-07-09T02:13:44.701Z,63.82
2018-07-09T02:14:44.651Z,64.02
2018-07-09T02:15:44.679Z,63.82
2018-07-09T02:16:44.688Z,63.82
2018-07-09T02:17:44.701Z,63.24
2018-07-09T02:18:44.764Z,63.92
2018-07-09T02:19:44.763Z,63.37
2018-07-09T02:20:44.753Z,63.44
2018-07-09T02:21:44.735Z,63.57
2018-07-09T02:22:44.746Z,63.44
2018-07-09T02:23:44.802Z,63.34
2018-07-09T02:24:44.793Z,62.96
2018-07-09T02:25:44.850Z,62.76
2018-07-09T02:26:44.831Z,63.73
2018-07-09T02:27:44.825Z,62.66
2018-07-09T02:28:44.843Z,63.44
2018-07-09T02:29:45.556Z,63.15
2018-07-09T02:30:44.896Z,63.63
2018-07-09T02:31:44.966Z,63.73
2018-07-09T02:32:44.893Z,63.34
2018-07-09T02:33:44.904Z,63.21
2018-07-09T02:34:44.949Z,63.31
2018-07-09T02:35:44.972Z,63.21
2018-07-09T02:36:44.953Z,63.50
2018-07-09T02:37:44.952Z,63.41
2018-07-09T02:38:44.992Z,63.02
2018-07-09T02:39:45.002Z,63.79
2018-07-09T02:40:45.059Z,63.89
2018-07-09T02:41:45.016Z,63.89
2018-07-09T02:42:45.042Z,63.21
2018-07-09T02:43:45.050Z,63.12
2018-07-09T02:44:45.042Z,63.50
2018-07-09T02:45:45.114Z,62.83
2018-07-09T02:46:45.081Z,63.98
2018-07-09T02:47:45.139Z,63.02
2018-07-09T02:48:45.111Z,62.83
2018-07-09T02:49:45.123Z,62.63
2018-07-09T02:50:45.134Z,63.50
2018-07-09T02:51:45.186Z,63.31
2018-07-09T02:52:45.229Z,63.12
2018-07-09T02:53:45.162Z,63.41
2018-07-09T02:54:45.255Z,63.50
2018-07-09T02:55:45.209Z,63.41
2018-07-09T02:56:45.255Z,63.79
2018-07-09T02:57:45.266Z,63.50
2018-07-09T02:58:45.240Z,63.12
2018-07-09T02:59:45.240Z,63.79
2018-07-09T03:00:45.323Z,63.73
2018-07-09T03:01:45.294Z,63.60
2018-07-09T03:02:45.327Z,63.70
2018-07-09T03:03:45.315Z,63.92
2018-07-09T03:04:45.313Z,63.50
2018-07-09T03:05:45.342Z,63.60
2018-07-09T03:06:45.347Z,63.79
2018-07-09T03:07:45.399Z,63.92
2018-07-09T03:08:45.420Z,64.37
2018-07-09T03:09:45.378Z,63.98
2018-07-09T03:10:45.415Z,63.89
2018-07-09T03:11:45.436Z,64.40
2018-07-09T03:12:45.431Z,63.98
2018-07-09T03:13:45.743Z,63.79
2018-07-09T03:14:45.441Z,64.37
2018-07-09T03:15:45.526Z,63.79
2018-07-09T03:16:45.492Z,64.37
2018-07-09T03:17:45.505Z,64.08
2018-07-09T03:18:45.590Z,64.86
2018-07-09T03:19:45.584Z,64.08
2018-07-09T03:20:45.544Z,64.08
2018-07-09T03:21:45.554Z,64.37
2018-07-09T03:22:45.578Z,64.18
2018-07-09T03:23:45.579Z,63.79
2018-07-09T03:24:45.577Z,64.47
2018-07-09T03:25:45.640Z,64.08
2018-07-09T03:26:45.617Z,63.89
2018-07-09T03:27:45.631Z,64.95
2018-07-09T03:28:45.639Z,64.08
2018-07-09T03:29:45.660Z,64.28
2018-07-09T03:30:45.711Z,64.37
2018-07-09T03:31:45.671Z,64.08
2018-07-09T03:32:45.692Z,63.89
2018-07-09T03:33:45.719Z,64.37
2018-07-09T03:34:45.713Z,64.18
2018-07-09T03:35:45.768Z,64.37
2018-07-09T03:36:45.794Z,63.79
2018-07-09T03:37:45.763Z,64.08
2018-07-09T03:38:45.764Z,64.28
2018-07-09T03:39:45.786Z,63.79
2018-07-09T03:40:45.850Z,63.50
2018-07-09T03:41:45.797Z,64.28
2018-07-09T03:42:46.018Z,64.08
2018-07-09T03:43:45.826Z,64.56
2018-07-09T03:44:46.233Z,64.37
2018-07-09T03:45:45.881Z,63.98
2018-07-09T03:46:45.920Z,63.98
2018-07-09T03:47:45.926Z,63.79
2018-07-09T03:48:45.939Z,63.79
2018-07-09T03:49:45.906Z,63.70
2018-07-09T03:50:45.970Z,63.79
2018-07-09T03:51:45.942Z,63.41
2018-07-09T03:52:45.990Z,63.02
2018-07-09T03:53:45.974Z,63.31
2018-07-09T03:54:45.985Z,63.41
2018-07-09T03:55:45.997Z,63.02
2018-07-09T03:56:45.995Z,62.83
2018-07-09T03:57:46.062Z,63.31
2018-07-09T03:58:46.018Z,62.83
2018-07-09T03:59:46.057Z,62.83
2018-07-09T04:00:46.078Z,62.54
2018-07-09T04:01:46.087Z,62.73
2018-07-09T04:02:46.137Z,62.93
2018-07-09T04:03:46.101Z,62.83
2018-07-09T04:04:46.177Z,62.83
2018-07-09T04:05:46.132Z,62.45
2018-07-09T04:06:46.161Z,61.99
2018-07-09T04:07:46.146Z,62.66
2018-07-09T04:08:46.169Z,62.18
2018-07-09T04:09:46.203Z,62.28
2018-07-09T04:10:46.235Z,61.38
2018-07-09T04:11:46.238Z,61.41
2018-07-09T04:12:46.208Z,62.28
2018-07-09T04:13:46.421Z,61.32
2018-07-09T04:14:46.268Z,61.13
2018-07-09T04:15:46.365Z,60.93
2018-07-09T04:16:46.300Z,60.93
2018-07-09T04:17:46.322Z,60.64
2018-07-09T04:18:46.291Z,60.55
2018-07-09T04:19:46.318Z,60.26
2018-07-09T04:20:46.348Z,60.83
2018-07-09T04:21:46.368Z,59.97
2018-07-09T04:22:46.386Z,59.97
2018-07-09T04:23:46.436Z,59.97
2018-07-09T04:24:46.400Z,59.00
2018-07-09T04:25:46.400Z,59.10
2018-07-09T04:26:46.408Z,59.03
2018-07-09T04:27:46.421Z,58.84
2018-07-09T04:28:46.468Z,58.75
2018-07-09T04:29:46.480Z,58.94
2018-07-09T04:30:46.485Z,59.13
2018-07-09T04:31:46.529Z,59.03
2018-07-09T04:32:46.503Z,58.26
2018-07-09T04:33:46.511Z,58.39
2018-07-09T04:34:46.556Z,58.10
2018-07-09T04:35:46.527Z,58.10
2018-07-09T04:36:46.599Z,57.62
2018-07-09T04:37:46.594Z,57.62
2018-07-09T04:38:46.603Z,57.90
2018-07-09T04:39:46.594Z,58.00
2018-07-09T04:40:46.609Z,58.48
2018-07-09T04:41:46.692Z,58.39
2018-07-09T04:42:46.621Z,58.19
2018-07-09T04:43:46.727Z,58.10
2018-07-09T04:44:46.672Z,58.10
2018-07-09T04:45:46.691Z,58.51
2018-07-09T04:46:46.768Z,57.90
2018-07-09T04:47:46.737Z,57.90
2018-07-09T04:48:46.880Z,57.93
2018-07-09T04:49:46.729Z,57.93
2018-07-09T04:50:46.752Z,57.06
2018-07-09T04:51:46.796Z,57.35
2018-07-09T04:52:46.789Z,57.26
2018-07-09T04:53:46.783Z,57.26
2018-07-09T04:54:46.802Z,57.64
2018-07-09T04:55:46.829Z,57.26
2018-07-09T04:56:46.885Z,56.87
2018-07-09T04:57:46.843Z,56.00
2018-07-09T04:58:46.866Z,56.68
2018-07-09T04:59:46.892Z,56.68
2018-07-09T05:00:46.900Z,56.87
2018-07-09T05:01:46.950Z,56.58
2018-07-09T05:02:46.942Z,56.87
2018-07-09T05:03:47.070Z,56.10
2018-07-09T05:04:46.973Z,56.03
2018-07-09T05:05:47.026Z,55.65
2018-07-09T05:06:47.062Z,55.45
2018-07-09T05:07:47.031Z,55.26
2018-07-09T05:08:47.038Z,55.35
2018-07-09T05:09:47.162Z,55.55
2018-07-09T05:10:47.040Z,54.68
2018-07-09T05:11:47.079Z,53.81
2018-07-09T05:12:47.080Z,54.61
2018-07-09T05:13:47.092Z,53.83
2018-07-09T05:14:47.097Z,53.74
2018-07-09T05:15:47.169Z,53.74
2018-07-09T05:16:47.234Z,53.25
2018-07-09T05:17:47.481Z,53.09
2018-07-09T05:18:47.224Z,52.02
2018-07-09T05:19:47.204Z,52.09
2018-07-09T05:20:47.199Z,51.73
2018-07-09T05:21:47.584Z,52.12
2018-07-09T05:22:47.358Z,51.06
2018-07-09T05:23:47.800Z,50.86
2018-07-09T05:24:47.531Z,50.89
2018-07-09T05:25:47.373Z,50.40
2018-07-09T05:26:47.286Z,49.92
2018-07-09T05:27:47.309Z,50.40
2018-07-09T05:28:47.315Z,49.92
2018-07-09T05:29:47.397Z,50.04
2018-07-09T05:30:47.350Z,49.56
2018-07-09T05:31:47.367Z,49.17
2018-07-09T05:32:47.413Z,49.00
2018-07-09T05:33:47.393Z,48.61
2018-07-09T05:34:47.484Z,47.74
2018-07-09T05:35:47.451Z,48.03
2018-07-09T05:36:47.482Z,47.94
2018-07-09T05:37:47.477Z,47.84
2018-07-09T05:38:47.511Z,47.96
2018-07-09T05:39:47.563Z,47.67
2018-07-09T05:40:47.504Z,47.57
2018-07-09T05:41:47.610Z,46.92
2018-07-09T05:42:47.546Z,46.82
2018-07-09T05:43:47.567Z,46.62
2018-07-09T05:44:47.589Z,46.04
2018-07-09T05:45:47.629Z,46.14
2018-07-09T05:46:47.667Z,45.17
2018-07-09T05:47:47.680Z,46.14
2018-07-09T05:48:47.655Z,46.04
2018-07-09T05:49:47.682Z,45.75
2018-07-09T05:50:47.702Z,45.95
2018-07-09T05:51:47.784Z,45.85
2018-07-09T05:52:47.717Z,45.75
2018-07-09T05:53:47.758Z,45.17
2018-07-09T05:54:47.739Z,45.64
2018-07-09T05:55:47.779Z,45.92
2018-07-09T05:56:47.842Z,46.02
2018-07-09T05:57:47.821Z,45.64
2018-07-09T05:58:47.839Z,46.51
2018-07-09T05:59:47.841Z,46.09
2018-07-09T06:00:47.881Z,46.87
2018-07-09T06:01:47.867Z,47.55
2018-07-09T06:02:47.967Z,47.72
2018-07-09T06:03:47.910Z,47.91
2018-07-09T06:04:47.927Z,47.94
2018-07-09T06:05:47.997Z,48.30
2018-07-09T06:06:47.982Z,48.37
2018-07-09T06:07:47.983Z,48.86
2018-07-09T06:08:47.997Z,48.95
2018-07-09T06:09:48.000Z,49.22
2018-07-09T06:10:48.012Z,49.82
2018-07-09T06:11:48.041Z,49.54
2018-07-09T06:12:48.112Z,50.21
2018-07-09T06:13:48.068Z,49.34
2018-07-09T06:14:48.071Z,49.80
2018-07-09T06:15:48.138Z,49.99
2018-07-09T06:16:48.099Z,50.48
2018-07-09T06:17:48.157Z,50.48
2018-07-09T06:18:48.122Z,50.55
2018-07-09T06:19:48.178Z,50.84
2018-07-09T06:20:48.164Z,51.71
2018-07-09T06:21:48.177Z,50.93
2018-07-09T06:22:48.235Z,50.74
2018-07-09T06:23:48.259Z,51.20
2018-07-09T06:24:48.235Z,51.78
2018-07-09T06:25:48.273Z,51.87
2018-07-09T06:26:48.254Z,52.26
2018-07-09T06:27:48.261Z,52.07
2018-07-09T06:28:48.312Z,52.36
2018-07-09T06:29:48.370Z,53.13
2018-07-09T06:30:48.344Z,52.55
2018-07-09T06:31:48.338Z,52.07
2018-07-09T06:32:48.342Z,52.55
2018-07-09T06:33:48.451Z,53.03
2018-07-09T06:34:48.405Z,52.26
2018-07-09T06:35:48.761Z,52.07
2018-07-09T06:36:48.421Z,52.55
2018-07-09T06:37:48.490Z,52.36
2018-07-09T06:38:48.470Z,53.13
2018-07-09T06:39:48.452Z,52.26
2018-07-09T06:40:48.456Z,52.07
2018-07-09T06:41:48.532Z,52.45
2018-07-09T06:42:48.497Z,52.55
2018-07-09T06:43:48.482Z,52.26
2018-07-09T06:44:48.554Z,52.36
2018-07-09T06:45:48.521Z,52.45
2018-07-09T06:46:48.675Z,52.07
2018-07-09T06:47:48.554Z,52.17
2018-07-09T06:48:48.590Z,51.68
2018-07-09T06:49:48.595Z,52.17
2018-07-09T06:50:48.622Z,52.94
2018-07-09T06:51:48.684Z,52.75
2018-07-09T06:52:48.633Z,52.36
2018-07-09T06:53:48.730Z,52.26
2018-07-09T06:54:48.663Z,52.07
2018-07-09T06:55:48.709Z,51.97
2018-07-09T06:56:48.769Z,52.65
2018-07-09T06:57:48.702Z,52.07
2018-07-09T06:58:48.722Z,52.07
2018-07-09T06:59:49.088Z,52.17
2018-07-09T07:00:48.776Z,52.17
2018-07-09T07:01:48.807Z,52.17
2018-07-09T07:02:48.789Z,52.36
2018-07-09T07:03:48.797Z,53.33
2018-07-09T07:04:48.825Z,53.03
2018-07-09T07:05:48.811Z,53.33
2018-07-09T07:06:48.828Z,52.91
2018-07-09T07:07:48.839Z,53.01
2018-07-09T07:08:48.992Z,52.91
2018-07-09T07:09:48.905Z,53.39
2018-07-09T07:10:48.892Z,53.59
2018-07-09T07:11:48.905Z,53.11
2018-07-09T07:12:48.911Z,53.11
2018-07-09T07:13:48.930Z,53.20
2018-07-09T07:14:48.982Z,53.69
2018-07-09T07:15:48.954Z,53.11
2018-07-09T07:16:48.981Z,52.81
2018-07-09T07:17:49.000Z,53.11
2018-07-09T07:18:49.003Z,53.49
2018-07-09T07:19:49.077Z,53.11
2018-07-09T07:20:49.035Z,53.78
2018-07-09T07:21:49.033Z,53.39
2018-07-09T07:22:49.073Z,53.30
2018-07-09T07:23:49.055Z,53.59
2018-07-09T07:24:49.097Z,53.69
2018-07-09T07:25:49.154Z,53.59
2018-07-09T07:26:49.164Z,53.78
2018-07-09T07:27:49.127Z,53.69
2018-07-09T07:28:49.131Z,54.07
2018-07-09T07:29:49.160Z,54.36
2018-07-09T07:30:49.208Z,54.65
2018-07-09T07:31:49.207Z,53.88
2018-07-09T07:32:49.262Z,53.88
2018-07-09T07:33:49.223Z,54.46
2018-07-09T07:34:49.222Z,53.88
2018-07-09T07:35:49.296Z,54.46
2018-07-09T07:36:49.267Z,54.46
2018-07-09T07:37:49.287Z,53.88
2018-07-09T07:38:49.286Z,53.97
2018-07-09T07:39:49.297Z,54.87
2018-07-09T07:40:49.333Z,54.58
2018-07-09T07:41:49.343Z,54.49
2018-07-09T07:42:49.338Z,54.55
2018-07-09T07:43:49.384Z,54.39
2018-07-09T07:44:49.392Z,53.42
2018-07-09T07:45:49.405Z,53.91
2018-07-09T07:46:49.454Z,53.81
2018-07-09T07:47:49.412Z,53.61
2018-07-09T07:48:49.426Z,53.71
2018-07-09T07:49:49.489Z,53.42
2018-07-09T07:50:49.477Z,53.71
2018-07-09T07:51:49.501Z,53.52
2018-07-09T07:52:49.499Z,53.61
2018-07-09T07:53:49.506Z,53.71
2018-07-09T07:54:49.518Z,53.71
2018-07-09T07:55:49.571Z,54.00
2018-07-09T07:56:49.550Z,53.03
2018-07-09T07:57:49.550Z,53.13
2018-07-09T07:58:49.576Z,53.42
2018-07-09T07:59:49.587Z,53.13
2018-07-09T08:00:49.639Z,53.42
2018-07-09T08:01:49.627Z,54.00
2018-07-09T08:02:49.623Z,53.23
2018-07-09T08:03:49.661Z,53.33
2018-07-09T08:04:49.641Z,53.23
2018-07-09T08:05:49.684Z,52.94
2018-07-09T08:06:49.709Z,53.13
2018-07-09T08:07:49.710Z,53.13
2018-07-09T08:08:49.718Z,53.13
2018-07-09T08:09:49.731Z,52.33
2018-07-09T08:10:49.741Z,53.20
2018-07-09T08:11:49.794Z,53.03
2018-07-09T08:13:49.797Z,53.23
2018-07-09T08:14:49.797Z,52.84
2018-07-09T08:15:49.798Z,53.23
2018-07-09T08:16:49.863Z,53.03
2018-07-09T08:17:49.856Z,53.03
2018-07-09T08:18:49.864Z,52.84
2018-07-09T08:19:49.867Z,53.03
2018-07-09T08:20:49.907Z,53.42
2018-07-09T08:21:49.934Z,52.94
2018-07-09T08:22:49.949Z,52.65
2018-07-09T08:23:49.936Z,51.20
2018-07-09T08:24:49.954Z,52.07
2018-07-09T08:25:49.964Z,51.29
2018-07-09T08:26:50.161Z,51.01
2018-07-09T08:27:50.005Z,51.01
2018-07-09T08:28:50.158Z,50.91
2018-07-09T08:29:50.010Z,50.52
2018-07-09T08:30:50.135Z,50.71
2018-07-09T08:31:50.052Z,50.23
2018-07-09T08:32:50.089Z,50.43
2018-07-09T08:33:50.078Z,49.85
2018-07-09T08:34:50.129Z,50.62
2018-07-09T08:35:50.135Z,50.81
2018-07-09T08:36:50.206Z,51.01
2018-07-09T08:37:50.178Z,50.81
2018-07-09T08:38:50.133Z,50.91
2018-07-09T08:39:50.167Z,50.81
2018-07-09T08:40:50.251Z,51.01
2018-07-09T08:41:50.183Z,50.91
2018-07-09T08:42:50.198Z,50.43
2018-07-09T08:43:50.201Z,49.65
2018-07-09T08:44:50.267Z,49.75
2018-07-09T08:45:50.265Z,49.07
2018-07-09T08:46:50.265Z,47.63
2018-07-09T08:47:50.320Z,47.91
2018-07-09T08:48:50.322Z,48.08
2018-07-09T08:49:50.301Z,48.69
2018-07-09T08:50:50.324Z,49.17
2018-07-09T08:51:50.326Z,48.97
2018-07-09T08:52:50.434Z,49.07
2018-07-09T08:53:50.397Z,48.39
2018-07-09T08:54:50.380Z,48.59
2018-07-09T08:55:50.393Z,48.76
2018-07-09T08:56:50.508Z,48.95
2018-07-09T08:57:50.422Z,48.57
2018-07-09T08:58:50.451Z,48.76
2018-07-09T08:59:50.498Z,48.57
2018-07-09T09:00:50.485Z,48.18
2018-07-09T09:01:50.474Z,47.89
2018-07-09T09:02:50.493Z,47.60
2018-07-09T09:03:50.581Z,48.08
2018-07-09T09:04:50.612Z,47.99
2018-07-09T09:05:50.589Z,47.99
2018-07-09T09:06:50.548Z,48.66
2018-07-09T09:07:50.563Z,48.47
2018-07-09T09:08:50.657Z,48.28
2018-07-09T09:09:50.592Z,48.28
2018-07-09T09:10:50.661Z,48.28
2018-07-09T09:11:50.616Z,48.88
2018-07-09T09:12:50.667Z,47.80
2018-07-09T09:13:50.656Z,47.22
2018-07-09T09:14:50.707Z,47.80
2018-07-09T09:15:50.683Z,48.66
2018-07-09T09:16:50.844Z,48.57
2018-07-09T09:17:50.703Z,47.91
2018-07-09T09:18:50.771Z,47.31
2018-07-09T09:19:50.718Z,45.40
2018-07-09T09:20:50.765Z,45.18
2018-07-09T09:21:50.776Z,45.38
2018-07-09T09:22:50.865Z,45.28
2018-07-09T09:23:50.785Z,45.09
2018-07-09T09:24:50.797Z,45.76
2018-07-09T09:25:50.854Z,44.90
2018-07-09T09:26:50.825Z,45.09
2018-07-09T09:27:50.828Z,45.09
2018-07-09T09:28:50.860Z,45.57
2018-07-09T09:29:50.880Z,45.67
2018-07-09T09:30:50.928Z,45.28
2018-07-09T09:31:50.895Z,45.57
2018-07-09T09:32:50.902Z,45.57
2018-07-09T09:33:50.915Z,45.00
2018-07-09T09:34:50.948Z,45.28
2018-07-09T09:35:50.983Z,45.28
2018-07-09T09:36:51.031Z,45.21
2018-07-09T09:37:50.991Z,43.64
2018-07-09T09:38:50.999Z,43.85
2018-07-09T09:39:51.009Z,43.57
2018-07-09T09:40:51.043Z,43.95
2018-07-09T09:41:51.061Z,43.08
2018-07-09T09:42:51.084Z,42.50
2018-07-09T09:43:51.077Z,40.67
2018-07-09T09:44:51.138Z,39.90
2018-07-09T09:45:51.102Z,39.32
2018-07-09T09:46:51.130Z,39.80
2018-07-09T09:47:51.139Z,38.93
2018-07-09T09:48:51.165Z,38.45
2018-07-09T09:49:51.192Z,39.32
2018-07-09T09:50:51.162Z,39.24
2018-07-09T09:51:51.181Z,38.16
2018-07-09T09:52:51.190Z,38.54
2018-07-09T09:53:51.199Z,38.54
2018-07-09T09:54:51.251Z,38.54
2018-07-09T09:55:51.296Z,38.93
2018-07-09T09:56:51.597Z,38.35
2018-07-09T09:57:51.331Z,39.41
2018-07-09T09:58:51.287Z,39.51
2018-07-09T09:59:51.327Z,39.51
2018-07-09T10:00:51.339Z,39.70
2018-07-09T10:01:51.336Z,39.70
2018-07-09T10:02:51.369Z,39.99
2018-07-09T10:03:51.359Z,40.57
2018-07-09T10:04:51.382Z,40.57
2018-07-09T10:05:51.524Z,40.38
2018-07-09T10:06:51.432Z,40.57
2018-07-09T10:07:51.431Z,41.36
2018-07-09T10:08:51.456Z,40.96
2018-07-09T10:09:51.480Z,40.57
2018-07-09T10:10:51.514Z,40.86
2018-07-09T10:11:51.530Z,40.57
2018-07-09T10:12:51.506Z,40.86
2018-07-09T10:13:51.595Z,40.84
2018-07-09T10:14:51.554Z,41.05
2018-07-09T10:15:51.643Z,41.35
2018-07-09T10:16:51.552Z,41.25
2018-07-09T10:17:51.568Z,42.19
2018-07-09T10:18:51.560Z,42.31
2018-07-09T10:19:51.624Z,42.31
2018-07-09T10:20:51.636Z,42.41
2018-07-09T10:21:51.636Z,41.15
2018-07-09T10:22:51.707Z,42.31
2018-07-09T10:23:51.799Z,41.73
2018-07-09T10:24:56.140Z,41.83
2018-07-09T10:25:51.704Z,42.12
2018-07-09T10:26:51.926Z,42.50
2018-07-09T10:27:51.712Z,42.99
2018-07-09T10:28:51.767Z,43.47
2018-07-09T10:29:51.737Z,43.28
2018-07-09T10:30:51.771Z,43.57
2018-07-09T10:31:51.845Z,43.85
2018-07-09T10:32:51.758Z,44.15
2018-07-09T10:33:52.027Z,44.53
2018-07-09T10:34:51.791Z,45.11
2018-07-09T10:35:51.819Z,45.21
2018-07-09T10:36:51.864Z,45.01
2018-07-09T10:37:51.834Z,45.11
2018-07-09T10:38:51.892Z,45.21
2018-07-09T10:39:51.873Z,45.21
2018-07-09T10:40:51.921Z,45.59
2018-07-09T10:41:51.910Z,46.00
2018-07-09T10:42:51.918Z,45.40
2018-07-09T10:43:51.951Z,45.59
2018-07-09T10:44:51.935Z,45.69
2018-07-09T10:45:52.048Z,45.89
2018-07-09T10:46:52.054Z,45.89
2018-07-09T10:47:51.984Z,46.37
2018-07-09T10:48:52.041Z,45.79
2018-07-09T10:49:52.032Z,46.37
2018-07-09T10:50:52.109Z,46.75
2018-07-09T10:51:52.056Z,46.47
2018-07-09T10:52:52.062Z,46.75
2018-07-09T10:53:52.108Z,46.66
2018-07-09T10:54:52.119Z,46.47
2018-07-09T10:55:52.100Z,46.37
2018-07-09T10:56:52.149Z,46.75
2018-07-09T10:57:52.176Z,46.47
2018-07-09T10:58:52.155Z,46.37
2018-07-09T10:59:52.541Z,46.56
2018-07-09T11:00:52.183Z,46.47
2018-07-09T11:01:52.216Z,46.37
2018-07-09T11:02:52.229Z,46.95
2018-07-09T11:03:52.252Z,46.66
2018-07-09T11:04:52.257Z,46.95
2018-07-09T11:05:52.250Z,47.05
2018-07-09T11:06:52.256Z,46.56
2018-07-09T11:07:52.280Z,46.17
2018-07-09T11:08:52.424Z,46.37
2018-07-09T11:09:52.326Z,46.56
2018-07-09T11:10:52.335Z,47.05
2018-07-09T11:11:52.378Z,46.37
2018-07-09T11:12:52.349Z,46.56
2018-07-09T11:13:52.426Z,46.85
2018-07-09T11:14:52.393Z,46.56
2018-07-09T11:15:52.427Z,46.75
2018-07-09T11:16:52.414Z,46.47
2018-07-09T11:17:52.536Z,46.95
2018-07-09T11:18:52.579Z,47.43
2018-07-09T11:19:52.551Z,46.95
2018-07-09T11:20:52.547Z,47.55
2018-07-09T11:21:52.526Z,47.45
2018-07-09T11:22:52.483Z,47.36
2018-07-09T11:23:52.504Z,47.16
2018-07-09T11:24:52.539Z,47.84
2018-07-09T11:25:52.544Z,47.26
2018-07-09T11:26:52.702Z,46.88
2018-07-09T11:27:52.564Z,47.26
2018-07-09T11:28:52.565Z,47.45
2018-07-09T11:29:52.734Z,47.26
2018-07-09T11:30:52.634Z,47.07
2018-07-09T11:31:53.653Z,46.58
2018-07-09T11:32:52.638Z,47.36
2018-07-09T11:33:52.656Z,47.55
2018-07-09T11:34:52.721Z,47.65
2018-07-09T11:35:52.734Z,47.74
2018-07-09T11:36:52.704Z,48.13
2018-07-09T11:37:52.719Z,48.03
2018-07-09T11:38:52.718Z,47.55
2018-07-09T11:39:52.777Z,47.65
2018-07-09T11:40:52.790Z,47.74
2018-07-09T11:41:52.763Z,48.52
2018-07-09T11:42:52.777Z,48.32
2018-07-09T11:43:52.831Z,48.90
2018-07-09T11:44:52.912Z,48.81
2018-07-09T11:45:52.834Z,48.90
2018-07-09T11:46:52.970Z,48.71
2018-07-09T11:47:52.888Z,48.64
2018-07-09T11:48:52.897Z,48.61
2018-07-09T11:49:52.917Z,48.74
2018-07-09T11:50:52.916Z,47.96
2018-07-09T11:51:52.922Z,47.86
2018-07-09T11:52:52.970Z,47.99
2018-07-09T11:53:52.951Z,47.86
2018-07-09T11:54:52.950Z,48.06
2018-07-09T11:55:53.062Z,48.35
2018-07-09T11:56:53.047Z,47.77
2018-07-09T11:57:53.005Z,47.58
2018-07-09T11:58:53.083Z,48.06
2018-07-09T11:59:53.146Z,48.37
2018-07-09T12:00:53.055Z,48.06
2018-07-09T12:01:53.189Z,47.96
2018-07-09T12:02:53.189Z,47.77
2018-07-09T12:03:53.095Z,47.58
2018-07-09T12:04:53.874Z,47.96
2018-07-09T12:05:53.191Z,47.77
2018-07-09T12:06:53.189Z,47.58
2018-07-09T12:07:53.167Z,47.89
2018-07-09T12:08:53.188Z,47.89
2018-07-09T12:09:53.221Z,47.79
2018-07-09T12:10:53.219Z,48.18
2018-07-09T12:11:53.215Z,47.96
2018-07-09T12:12:53.216Z,47.67
2018-07-09T12:13:53.554Z,47.86
2018-07-09T12:14:53.308Z,48.18
2018-07-09T12:15:53.270Z,48.76
2018-07-09T12:16:53.285Z,48.08
2018-07-09T12:17:53.293Z,47.86
2018-07-09T12:18:53.301Z,47.69
2018-07-09T12:19:53.371Z,47.50
2018-07-09T12:20:53.357Z,47.89
2018-07-09T12:21:53.361Z,47.69
2018-07-09T12:22:53.369Z,47.79
2018-07-09T12:23:53.373Z,47.79
2018-07-09T12:24:53.466Z,47.89
2018-07-09T12:25:53.458Z,48.08
2018-07-09T12:26:53.430Z,48.66
2018-07-09T12:27:53.452Z,48.18
2018-07-09T12:28:53.483Z,48.18
2018-07-09T12:29:53.667Z,47.99
2018-07-09T12:30:53.510Z,48.08
2018-07-09T12:31:53.543Z,47.79
2018-07-09T12:32:53.537Z,47.69
2018-07-09T12:33:54.349Z,47.79
2018-07-09T12:34:53.547Z,48.57
2018-07-09T12:35:53.581Z,48.18
2018-07-09T12:36:53.613Z,48.37
2018-07-09T12:37:53.592Z,48.08
2018-07-09T12:38:53.644Z,48.66
2018-07-09T12:39:53.698Z,48.95
2018-07-09T12:40:53.629Z,47.79
2018-07-09T12:41:53.660Z,48.18
2018-07-09T12:42:53.680Z,48.47
2018-07-09T12:43:53.805Z,47.69
2018-07-09T12:44:53.707Z,48.27
2018-07-09T12:45:53.715Z,48.08
2018-07-09T12:46:53.738Z,48.18
2018-07-09T12:47:53.737Z,48.18
2018-07-09T12:48:53.816Z,48.27
2018-07-09T12:49:53.779Z,48.86
2018-07-09T12:50:53.832Z,48.37
2018-07-09T12:51:53.817Z,48.95
2018-07-09T12:52:53.807Z,48.95
2018-07-09T12:53:53.909Z,48.86